sensor_id;sensor_type;location;lat;lon;timestamp;P1;durP1;ratioP1;P2;durP2;ratioP2
6973;SDS011;3527;52.376;8.990;2022-08-19T00:00:21;7.37;;;6.17;;
6973;SDS011;3527;52.376;8.990;2022-08-19T00:03:08;10.43;;;6.17;;
6973;SDS011;3527;52.376;8.990;2022-08-19T00:05:55;8.00;;;6.90;;
6973;SDS011;3527;52.376;8.990;2022-08-19T00:08:42;11.60;;;7.70;;
6973;SDS011;3527;52.376;8.990;2022-08-19T00:11:29;10.40;;;6.53;;
6973;SDS011;3527;52.376;8.990;2022-08-19T00:14:17;14.97;;;7.00;;
6973;SDS011;3527;52.376;8.990;2022-08-19T00:17:05;8.63;;;6.00;;
6973;SDS011;3527;52.376;8.990;2022-08-19T00:19:53;8.50;;;6.27;;
6973;SDS011;3527;52.376;8.990;2022-08-19T00:22:40;7.73;;;5.60;;
6973;SDS011;3527;52.376;8.990;2022-08-19T00:25:27;8.20;;;5.33;;
6973;SDS011;3527;52.376;8.990;2022-08-19T00:28:16;9.33;;;6.37;;
6973;SDS011;3527;52.376;8.990;2022-08-19T00:31:03;10.63;;;6.00;;
6973;SDS011;3527;52.376;8.990;2022-08-19T00:33:51;7.53;;;6.20;;
6973;SDS011;3527;52.376;8.990;2022-08-19T00:36:38;7.20;;;5.67;;
6973;SDS011;3527;52.376;8.990;2022-08-19T00:39:26;7.97;;;5.77;;
6973;SDS011;3527;52.376;8.990;2022-08-19T00:42:13;9.57;;;6.57;;
6973;SDS011;3527;52.376;8.990;2022-08-19T00:45:02;7.70;;;6.30;;
6973;SDS011;3527;52.376;8.990;2022-08-19T00:47:55;9.20;;;5.93;;
6973;SDS011;3527;52.376;8.990;2022-08-19T00:50:42;11.70;;;7.10;;
6973;SDS011;3527;52.376;8.990;2022-08-19T00:53:37;8.70;;;6.03;;
6973;SDS011;3527;52.376;8.990;2022-08-19T00:56:26;9.23;;;7.30;;
6973;SDS011;3527;52.376;8.990;2022-08-19T00:59:13;11.07;;;7.67;;
6973;SDS011;3527;52.376;8.990;2022-08-19T01:02:22;12.80;;;8.03;;
6973;SDS011;3527;52.376;8.990;2022-08-19T01:05:11;11.00;;;7.80;;
6973;SDS011;3527;52.376;8.990;2022-08-19T01:08:02;11.27;;;8.17;;
6973;SDS011;3527;52.376;8.990;2022-08-19T01:10:53;13.20;;;9.83;;
6973;SDS011;3527;52.376;8.990;2022-08-19T01:13:42;14.63;;;10.30;;
6973;SDS011;3527;52.376;8.990;2022-08-19T01:16:35;16.30;;;11.40;;
6973;SDS011;3527;52.376;8.990;2022-08-19T01:19:29;13.77;;;10.30;;
6973;SDS011;3527;52.376;8.990;2022-08-19T01:22:30;13.67;;;10.57;;
6973;SDS011;3527;52.376;8.990;2022-08-19T01:25:32;15.47;;;11.33;;
6973;SDS011;3527;52.376;8.990;2022-08-19T01:28:27;12.87;;;10.13;;
6973;SDS011;3527;52.376;8.990;2022-08-19T01:31:26;14.30;;;10.60;;
6973;SDS011;3527;52.376;8.990;2022-08-19T01:34:19;16.73;;;11.33;;
6973;SDS011;3527;52.376;8.990;2022-08-19T01:37:07;14.57;;;11.03;;
6973;SDS011;3527;52.376;8.990;2022-08-19T01:39:57;13.37;;;10.90;;
6973;SDS011;3527;52.376;8.990;2022-08-19T01:42:44;13.07;;;9.47;;
6973;SDS011;3527;52.376;8.990;2022-08-19T01:45:33;13.80;;;10.90;;
6973;SDS011;3527;52.376;8.990;2022-08-19T01:48:20;15.50;;;10.80;;
6973;SDS011;3527;52.376;8.990;2022-08-19T01:51:09;15.23;;;11.57;;
6973;SDS011;3527;52.376;8.990;2022-08-19T01:53:57;14.17;;;11.47;;
6973;SDS011;3527;52.376;8.990;2022-08-19T01:56:44;14.13;;;12.00;;
6973;SDS011;3527;52.376;8.990;2022-08-19T01:59:31;18.90;;;13.67;;
6973;SDS011;3527;52.376;8.990;2022-08-19T02:02:19;17.63;;;13.10;;
6973;SDS011;3527;52.376;8.990;2022-08-19T02:05:07;16.60;;;12.83;;
6973;SDS011;3527;52.376;8.990;2022-08-19T02:07:56;17.00;;;13.67;;
6973;SDS011;3527;52.376;8.990;2022-08-19T02:10:44;19.37;;;14.13;;
6973;SDS011;3527;52.376;8.990;2022-08-19T02:13:31;21.77;;;14.90;;
6973;SDS011;3527;52.376;8.990;2022-08-19T02:16:19;20.90;;;13.87;;
6973;SDS011;3527;52.376;8.990;2022-08-19T02:19:07;18.87;;;13.93;;
6973;SDS011;3527;52.376;8.990;2022-08-19T02:21:54;18.80;;;13.03;;
6973;SDS011;3527;52.376;8.990;2022-08-19T02:24:41;19.83;;;13.80;;
6973;SDS011;3527;52.376;8.990;2022-08-19T02:27:28;17.30;;;13.83;;
6973;SDS011;3527;52.376;8.990;2022-08-19T02:30:16;18.60;;;14.10;;
6973;SDS011;3527;52.376;8.990;2022-08-19T02:33:04;17.80;;;14.30;;
6973;SDS011;3527;52.376;8.990;2022-08-19T02:35:51;19.43;;;15.07;;
6973;SDS011;3527;52.376;8.990;2022-08-19T02:38:38;23.80;;;17.30;;
6973;SDS011;3527;52.376;8.990;2022-08-19T02:41:27;22.13;;;15.67;;
6973;SDS011;3527;52.376;8.990;2022-08-19T02:44:15;22.43;;;16.03;;
6973;SDS011;3527;52.376;8.990;2022-08-19T02:47:18;21.33;;;16.03;;
6973;SDS011;3527;52.376;8.990;2022-08-19T02:50:05;23.30;;;17.07;;
6973;SDS011;3527;52.376;8.990;2022-08-19T02:52:53;22.50;;;16.53;;
6973;SDS011;3527;52.376;8.990;2022-08-19T02:55:44;24.73;;;17.93;;
6973;SDS011;3527;52.376;8.990;2022-08-19T02:58:33;23.27;;;16.83;;
6973;SDS011;3527;52.376;8.990;2022-08-19T03:01:22;24.97;;;18.70;;
6973;SDS011;3527;52.376;8.990;2022-08-19T03:04:15;24.93;;;18.67;;
6973;SDS011;3527;52.376;8.990;2022-08-19T03:07:02;22.73;;;17.13;;
6973;SDS011;3527;52.376;8.990;2022-08-19T03:09:56;21.33;;;16.50;;
6973;SDS011;3527;52.376;8.990;2022-08-19T03:12:43;23.50;;;15.30;;
6973;SDS011;3527;52.376;8.990;2022-08-19T03:15:32;25.03;;;18.40;;
6973;SDS011;3527;52.376;8.990;2022-08-19T03:18:19;22.43;;;16.93;;
6973;SDS011;3527;52.376;8.990;2022-08-19T03:21:08;21.50;;;16.43;;
6973;SDS011;3527;52.376;8.990;2022-08-19T03:23:58;28.97;;;19.90;;
6973;SDS011;3527;52.376;8.990;2022-08-19T03:26:49;28.23;;;20.67;;
6973;SDS011;3527;52.376;8.990;2022-08-19T03:29:38;27.57;;;19.77;;
6973;SDS011;3527;52.376;8.990;2022-08-19T03:32:29;29.97;;;20.63;;
6973;SDS011;3527;52.376;8.990;2022-08-19T03:35:18;26.47;;;18.60;;
6973;SDS011;3527;52.376;8.990;2022-08-19T03:38:06;28.20;;;20.03;;
6973;SDS011;3527;52.376;8.990;2022-08-19T03:40:53;29.57;;;20.40;;
6973;SDS011;3527;52.376;8.990;2022-08-19T03:43:41;26.60;;;19.47;;
6973;SDS011;3527;52.376;8.990;2022-08-19T03:46:30;29.53;;;20.57;;
6973;SDS011;3527;52.376;8.990;2022-08-19T03:49:19;31.83;;;20.50;;
6973;SDS011;3527;52.376;8.990;2022-08-19T03:52:12;28.83;;;20.33;;
6973;SDS011;3527;52.376;8.990;2022-08-19T03:55:00;29.27;;;21.37;;
6973;SDS011;3527;52.376;8.990;2022-08-19T03:57:48;27.93;;;19.23;;
6973;SDS011;3527;52.376;8.990;2022-08-19T04:00:35;27.33;;;20.00;;
6973;SDS011;3527;52.376;8.990;2022-08-19T04:03:24;30.60;;;19.80;;
6973;SDS011;3527;52.376;8.990;2022-08-19T04:06:14;34.33;;;20.70;;
6973;SDS011;3527;52.376;8.990;2022-08-19T04:09:09;26.83;;;18.97;;
6973;SDS011;3527;52.376;8.990;2022-08-19T04:11:57;28.60;;;19.53;;
6973;SDS011;3527;52.376;8.990;2022-08-19T04:14:45;26.17;;;18.47;;
6973;SDS011;3527;52.376;8.990;2022-08-19T04:17:32;28.53;;;18.90;;
6973;SDS011;3527;52.376;8.990;2022-08-19T04:20:19;30.90;;;20.60;;
6973;SDS011;3527;52.376;8.990;2022-08-19T04:23:06;31.10;;;21.63;;
6973;SDS011;3527;52.376;8.990;2022-08-19T04:25:54;29.13;;;20.93;;
6973;SDS011;3527;52.376;8.990;2022-08-19T04:28:42;29.33;;;19.37;;
6973;SDS011;3527;52.376;8.990;2022-08-19T04:31:30;28.70;;;20.00;;
6973;SDS011;3527;52.376;8.990;2022-08-19T04:34:23;32.80;;;21.03;;
6973;SDS011;3527;52.376;8.990;2022-08-19T04:37:11;29.53;;;21.33;;
6973;SDS011;3527;52.376;8.990;2022-08-19T04:39:59;31.77;;;21.17;;
6973;SDS011;3527;52.376;8.990;2022-08-19T04:43:04;28.87;;;20.90;;
6973;SDS011;3527;52.376;8.990;2022-08-19T04:45:51;32.77;;;22.70;;
6973;SDS011;3527;52.376;8.990;2022-08-19T04:48:46;31.57;;;22.67;;
6973;SDS011;3527;52.376;8.990;2022-08-19T04:51:35;31.77;;;21.43;;
6973;SDS011;3527;52.376;8.990;2022-08-19T04:54:23;35.40;;;23.40;;
6973;SDS011;3527;52.376;8.990;2022-08-19T04:57:24;32.53;;;21.63;;
6973;SDS011;3527;52.376;8.990;2022-08-19T05:00:12;35.33;;;23.37;;
6973;SDS011;3527;52.376;8.990;2022-08-19T05:03:00;33.83;;;23.50;;
6973;SDS011;3527;52.376;8.990;2022-08-19T05:05:48;35.97;;;23.27;;
6973;SDS011;3527;52.376;8.990;2022-08-19T05:08:36;36.53;;;22.77;;
6973;SDS011;3527;52.376;8.990;2022-08-19T05:11:29;38.67;;;23.67;;
6973;SDS011;3527;52.376;8.990;2022-08-19T05:14:19;35.33;;;23.37;;
6973;SDS011;3527;52.376;8.990;2022-08-19T05:17:07;31.07;;;22.43;;
6973;SDS011;3527;52.376;8.990;2022-08-19T05:20:12;33.77;;;22.97;;
6973;SDS011;3527;52.376;8.990;2022-08-19T05:23:18;36.37;;;22.53;;
6973;SDS011;3527;52.376;8.990;2022-08-19T05:26:08;37.03;;;23.43;;
6973;SDS011;3527;52.376;8.990;2022-08-19T05:28:57;33.40;;;23.13;;
6973;SDS011;3527;52.376;8.990;2022-08-19T05:31:46;33.27;;;22.00;;
6973;SDS011;3527;52.376;8.990;2022-08-19T05:34:36;33.37;;;22.30;;
6973;SDS011;3527;52.376;8.990;2022-08-19T05:37:24;29.20;;;19.97;;
6973;SDS011;3527;52.376;8.990;2022-08-19T05:40:14;31.03;;;21.63;;
6973;SDS011;3527;52.376;8.990;2022-08-19T05:43:01;30.80;;;21.43;;
6973;SDS011;3527;52.376;8.990;2022-08-19T05:45:49;34.47;;;21.27;;
6973;SDS011;3527;52.376;8.990;2022-08-19T05:48:37;29.67;;;20.70;;
6973;SDS011;3527;52.376;8.990;2022-08-19T05:51:24;33.13;;;22.07;;
6973;SDS011;3527;52.376;8.990;2022-08-19T05:54:14;27.27;;;19.50;;
6973;SDS011;3527;52.376;8.990;2022-08-19T05:57:02;30.13;;;21.03;;
6973;SDS011;3527;52.376;8.990;2022-08-19T05:59:49;26.97;;;19.40;;
6973;SDS011;3527;52.376;8.990;2022-08-19T06:02:44;26.97;;;19.00;;
6973;SDS011;3527;52.376;8.990;2022-08-19T06:05:31;28.03;;;18.10;;
6973;SDS011;3527;52.376;8.990;2022-08-19T06:08:31;24.60;;;17.37;;
6973;SDS011;3527;52.376;8.990;2022-08-19T06:11:23;26.10;;;18.00;;
6973;SDS011;3527;52.376;8.990;2022-08-19T06:14:20;24.00;;;17.73;;
6973;SDS011;3527;52.376;8.990;2022-08-19T06:17:13;24.40;;;17.70;;
6973;SDS011;3527;52.376;8.990;2022-08-19T06:20:01;24.27;;;18.30;;
6973;SDS011;3527;52.376;8.990;2022-08-19T06:22:50;27.33;;;18.87;;
6973;SDS011;3527;52.376;8.990;2022-08-19T06:25:38;25.80;;;19.43;;
6973;SDS011;3527;52.376;8.990;2022-08-19T06:28:27;26.83;;;18.60;;
6973;SDS011;3527;52.376;8.990;2022-08-19T06:31:19;22.33;;;17.40;;
6973;SDS011;3527;52.376;8.990;2022-08-19T06:34:09;22.60;;;17.60;;
6973;SDS011;3527;52.376;8.990;2022-08-19T06:36:56;27.53;;;19.50;;
6973;SDS011;3527;52.376;8.990;2022-08-19T06:39:48;28.30;;;18.90;;
6973;SDS011;3527;52.376;8.990;2022-08-19T06:42:36;28.80;;;20.20;;
6973;SDS011;3527;52.376;8.990;2022-08-19T06:45:30;22.93;;;18.47;;
6973;SDS011;3527;52.376;8.990;2022-08-19T06:48:21;24.40;;;19.17;;
6973;SDS011;3527;52.376;8.990;2022-08-19T06:51:12;28.23;;;22.07;;
6973;SDS011;3527;52.376;8.990;2022-08-19T06:54:04;26.03;;;20.13;;
6973;SDS011;3527;52.376;8.990;2022-08-19T06:57:05;25.60;;;19.70;;
6973;SDS011;3527;52.376;8.990;2022-08-19T06:59:53;27.27;;;18.80;;
6973;SDS011;3527;52.376;8.990;2022-08-19T07:02:43;25.53;;;18.73;;
6973;SDS011;3527;52.376;8.990;2022-08-19T07:05:41;25.73;;;18.50;;
6973;SDS011;3527;52.376;8.990;2022-08-19T07:08:32;25.37;;;18.90;;
6973;SDS011;3527;52.376;8.990;2022-08-19T07:11:20;26.63;;;18.10;;
6973;SDS011;3527;52.376;8.990;2022-08-19T07:14:09;21.43;;;17.23;;
6973;SDS011;3527;52.376;8.990;2022-08-19T07:17:06;24.50;;;18.53;;
6973;SDS011;3527;52.376;8.990;2022-08-19T07:19:55;21.80;;;16.47;;
6973;SDS011;3527;52.376;8.990;2022-08-19T07:22:43;21.93;;;16.77;;
6973;SDS011;3527;52.376;8.990;2022-08-19T07:25:31;23.67;;;17.37;;
6973;SDS011;3527;52.376;8.990;2022-08-19T07:28:19;22.10;;;15.67;;
6973;SDS011;3527;52.376;8.990;2022-08-19T07:31:11;23.03;;;15.83;;
6973;SDS011;3527;52.376;8.990;2022-08-19T07:34:10;23.30;;;16.70;;
6973;SDS011;3527;52.376;8.990;2022-08-19T07:36:58;22.00;;;16.50;;
6973;SDS011;3527;52.376;8.990;2022-08-19T07:39:46;23.67;;;17.07;;
6973;SDS011;3527;52.376;8.990;2022-08-19T07:42:34;23.33;;;16.90;;
6973;SDS011;3527;52.376;8.990;2022-08-19T07:45:21;24.53;;;18.23;;
6973;SDS011;3527;52.376;8.990;2022-08-19T07:48:08;23.20;;;15.83;;
6973;SDS011;3527;52.376;8.990;2022-08-19T07:50:57;25.83;;;17.20;;
6973;SDS011;3527;52.376;8.990;2022-08-19T07:53:48;28.50;;;17.97;;
6973;SDS011;3527;52.376;8.990;2022-08-19T07:56:37;25.43;;;16.70;;
6973;SDS011;3527;52.376;8.990;2022-08-19T07:59:25;28.77;;;18.87;;
6973;SDS011;3527;52.376;8.990;2022-08-19T08:02:12;24.20;;;15.47;;
6973;SDS011;3527;52.376;8.990;2022-08-19T08:04:59;21.53;;;16.50;;
6973;SDS011;3527;52.376;8.990;2022-08-19T08:08:05;18.90;;;14.40;;
6973;SDS011;3527;52.376;8.990;2022-08-19T08:11:32;18.03;;;13.63;;
6973;SDS011;3527;52.376;8.990;2022-08-19T08:14:28;18.83;;;13.93;;
6973;SDS011;3527;52.376;8.990;2022-08-19T08:17:29;17.00;;;13.33;;
6973;SDS011;3527;52.376;8.990;2022-08-19T08:20:35;18.17;;;13.37;;
6973;SDS011;3527;52.376;8.990;2022-08-19T08:23:22;17.37;;;12.70;;
6973;SDS011;3527;52.376;8.990;2022-08-19T08:26:12;16.87;;;11.93;;
6973;SDS011;3527;52.376;8.990;2022-08-19T08:29:05;19.40;;;12.77;;
6973;SDS011;3527;52.376;8.990;2022-08-19T08:31:58;15.40;;;11.23;;
6973;SDS011;3527;52.376;8.990;2022-08-19T08:34:45;16.60;;;11.17;;
6973;SDS011;3527;52.376;8.990;2022-08-19T08:37:38;20.93;;;15.17;;
6973;SDS011;3527;52.376;8.990;2022-08-19T08:43:38;17.57;;;13.40;;
6973;SDS011;3527;52.376;8.990;2022-08-19T08:46:34;15.70;;;11.67;;
6973;SDS011;3527;52.376;8.990;2022-08-19T08:52:33;13.23;;;10.40;;
6973;SDS011;3527;52.376;8.990;2022-08-19T08:55:26;15.07;;;11.33;;
6973;SDS011;3527;52.376;8.990;2022-08-19T08:58:27;14.80;;;10.03;;
6973;SDS011;3527;52.376;8.990;2022-08-19T09:01:21;14.97;;;10.30;;
6973;SDS011;3527;52.376;8.990;2022-08-19T09:04:09;10.90;;;8.40;;
6973;SDS011;3527;52.376;8.990;2022-08-19T09:10:28;8.73;;;6.30;;
6973;SDS011;3527;52.376;8.990;2022-08-19T09:16:28;4.50;;;3.83;;
6973;SDS011;3527;52.376;8.990;2022-08-19T09:19:16;6.13;;;5.00;;
6973;SDS011;3527;52.376;8.990;2022-08-19T09:22:08;6.73;;;5.00;;
6973;SDS011;3527;52.376;8.990;2022-08-19T09:24:56;5.77;;;4.33;;
6973;SDS011;3527;52.376;8.990;2022-08-19T09:27:44;6.87;;;4.20;;
6973;SDS011;3527;52.376;8.990;2022-08-19T09:30:34;6.20;;;4.60;;
6973;SDS011;3527;52.376;8.990;2022-08-19T09:33:28;5.27;;;4.70;;
6973;SDS011;3527;52.376;8.990;2022-08-19T09:36:16;7.40;;;5.70;;
6973;SDS011;3527;52.376;8.990;2022-08-19T09:39:19;7.87;;;5.30;;
6973;SDS011;3527;52.376;8.990;2022-08-19T09:42:06;8.63;;;5.63;;
6973;SDS011;3527;52.376;8.990;2022-08-19T09:45:17;7.97;;;5.17;;
6973;SDS011;3527;52.376;8.990;2022-08-19T09:48:08;5.33;;;4.50;;
6973;SDS011;3527;52.376;8.990;2022-08-19T09:51:31;7.30;;;4.70;;
6973;SDS011;3527;52.376;8.990;2022-08-19T09:54:14;6.57;;;5.10;;
6973;SDS011;3527;52.376;8.990;2022-08-19T09:57:09;7.70;;;4.77;;
6973;SDS011;3527;52.376;8.990;2022-08-19T09:59:56;6.97;;;4.13;;
6973;SDS011;3527;52.376;8.990;2022-08-19T10:02:43;4.97;;;3.13;;
6973;SDS011;3527;52.376;8.990;2022-08-19T10:05:31;4.03;;;2.85;;
6973;SDS011;3527;52.376;8.990;2022-08-19T10:08:41;3.65;;;2.90;;
6973;SDS011;3527;52.376;8.990;2022-08-19T10:11:36;4.00;;;2.70;;
6973;SDS011;3527;52.376;8.990;2022-08-19T10:14:39;7.65;;;2.50;;
6973;SDS011;3527;52.376;8.990;2022-08-19T10:17:26;2.53;;;1.90;;
6973;SDS011;3527;52.376;8.990;2022-08-19T10:20:19;2.90;;;2.60;;
6973;SDS011;3527;52.376;8.990;2022-08-19T10:23:06;4.70;;;2.17;;
6973;SDS011;3527;52.376;8.990;2022-08-19T10:25:53;3.97;;;2.33;;
6973;SDS011;3527;52.376;8.990;2022-08-19T10:28:54;2.65;;;2.00;;
6973;SDS011;3527;52.376;8.990;2022-08-19T10:31:44;1.95;;;1.55;;
6973;SDS011;3527;52.376;8.990;2022-08-19T10:34:48;2.10;;;1.63;;
6973;SDS011;3527;52.376;8.990;2022-08-19T10:37:42;1.92;;;1.70;;
6973;SDS011;3527;52.376;8.990;2022-08-19T10:40:43;2.75;;;1.60;;
6973;SDS011;3527;52.376;8.990;2022-08-19T10:43:30;1.98;;;1.70;;
6973;SDS011;3527;52.376;8.990;2022-08-19T10:46:18;1.50;;;1.15;;
6973;SDS011;3527;52.376;8.990;2022-08-19T10:49:09;1.50;;;1.27;;
6973;SDS011;3527;52.376;8.990;2022-08-19T10:51:58;2.17;;;1.20;;
6973;SDS011;3527;52.376;8.990;2022-08-19T10:55:06;1.60;;;1.33;;
6973;SDS011;3527;52.376;8.990;2022-08-19T10:58:16;1.40;;;1.10;;
6973;SDS011;3527;52.376;8.990;2022-08-19T11:01:09;2.55;;;1.60;;
6973;SDS011;3527;52.376;8.990;2022-08-19T11:03:56;2.00;;;1.50;;
6973;SDS011;3527;52.376;8.990;2022-08-19T11:06:51;2.17;;;1.50;;
6973;SDS011;3527;52.376;8.990;2022-08-19T11:09:39;2.60;;;1.30;;
6973;SDS011;3527;52.376;8.990;2022-08-19T11:12:28;2.78;;;1.45;;
6973;SDS011;3527;52.376;8.990;2022-08-19T11:15:15;1.40;;;1.08;;
6973;SDS011;3527;52.376;8.990;2022-08-19T11:18:03;2.55;;;1.60;;
6973;SDS011;3527;52.376;8.990;2022-08-19T11:21:08;2.13;;;1.40;;
6973;SDS011;3527;52.376;8.990;2022-08-19T11:24:02;3.42;;;1.58;;
6973;SDS011;3527;52.376;8.990;2022-08-19T11:26:53;2.75;;;1.50;;
6973;SDS011;3527;52.376;8.990;2022-08-19T11:29:46;2.42;;;1.55;;
6973;SDS011;3527;52.376;8.990;2022-08-19T11:32:34;2.35;;;1.60;;
6973;SDS011;3527;52.376;8.990;2022-08-19T11:35:23;2.25;;;1.52;;
6973;SDS011;3527;52.376;8.990;2022-08-19T11:38:10;1.92;;;1.52;;
6973;SDS011;3527;52.376;8.990;2022-08-19T11:40:58;1.65;;;1.30;;
6973;SDS011;3527;52.376;8.990;2022-08-19T11:43:47;4.35;;;1.60;;
6973;SDS011;3527;52.376;8.990;2022-08-19T11:46:35;2.60;;;1.45;;
6973;SDS011;3527;52.376;8.990;2022-08-19T11:49:24;1.70;;;1.45;;
6973;SDS011;3527;52.376;8.990;2022-08-19T11:52:11;2.92;;;1.48;;
6973;SDS011;3527;52.376;8.990;2022-08-19T11:54:59;2.17;;;1.48;;
6973;SDS011;3527;52.376;8.990;2022-08-19T11:57:48;2.40;;;1.50;;
6973;SDS011;3527;52.376;8.990;2022-08-19T12:00:39;1.45;;;1.35;;
6973;SDS011;3527;52.376;8.990;2022-08-19T12:03:28;1.92;;;1.42;;
6973;SDS011;3527;52.376;8.990;2022-08-19T12:06:17;1.73;;;1.42;;
6973;SDS011;3527;52.376;8.990;2022-08-19T12:09:12;3.17;;;1.63;;
6973;SDS011;3527;52.376;8.990;2022-08-19T12:12:00;2.88;;;1.55;;
6973;SDS011;3527;52.376;8.990;2022-08-19T12:14:48;2.15;;;1.55;;
6973;SDS011;3527;52.376;8.990;2022-08-19T12:17:37;2.45;;;1.50;;
6973;SDS011;3527;52.376;8.990;2022-08-19T12:20:24;2.63;;;1.55;;
6973;SDS011;3527;52.376;8.990;2022-08-19T12:23:13;5.25;;;1.50;;
6973;SDS011;3527;52.376;8.990;2022-08-19T12:26:01;2.47;;;1.40;;
6973;SDS011;3527;52.376;8.990;2022-08-19T12:28:48;2.47;;;1.80;;
6973;SDS011;3527;52.376;8.990;2022-08-19T12:31:35;2.05;;;1.73;;
6973;SDS011;3527;52.376;8.990;2022-08-19T12:34:22;2.30;;;1.63;;
6973;SDS011;3527;52.376;8.990;2022-08-19T12:37:11;2.58;;;1.63;;
6973;SDS011;3527;52.376;8.990;2022-08-19T12:39:58;2.53;;;1.50;;
6973;SDS011;3527;52.376;8.990;2022-08-19T12:42:46;2.22;;;1.80;;
6973;SDS011;3527;52.376;8.990;2022-08-19T12:45:33;2.70;;;1.58;;
6973;SDS011;3527;52.376;8.990;2022-08-19T12:48:23;2.35;;;1.95;;
6973;SDS011;3527;52.376;8.990;2022-08-19T12:51:19;2.65;;;1.98;;
6973;SDS011;3527;52.376;8.990;2022-08-19T12:54:07;2.13;;;1.90;;
6973;SDS011;3527;52.376;8.990;2022-08-19T12:56:54;2.47;;;1.88;;
6973;SDS011;3527;52.376;8.990;2022-08-19T12:59:42;2.95;;;1.85;;
6973;SDS011;3527;52.376;8.990;2022-08-19T13:02:29;3.65;;;1.80;;
6973;SDS011;3527;52.376;8.990;2022-08-19T13:05:25;3.60;;;1.95;;
6973;SDS011;3527;52.376;8.990;2022-08-19T13:08:16;3.72;;;2.00;;
6973;SDS011;3527;52.376;8.990;2022-08-19T13:11:16;2.80;;;1.92;;
6973;SDS011;3527;52.376;8.990;2022-08-19T13:14:05;4.40;;;2.05;;
6973;SDS011;3527;52.376;8.990;2022-08-19T13:16:52;2.30;;;2.10;;
6973;SDS011;3527;52.376;8.990;2022-08-19T13:19:39;2.92;;;2.00;;
6973;SDS011;3527;52.376;8.990;2022-08-19T13:22:26;4.22;;;2.40;;
6973;SDS011;3527;52.376;8.990;2022-08-19T13:25:14;2.92;;;2.17;;
6973;SDS011;3527;52.376;8.990;2022-08-19T13:28:04;3.15;;;2.20;;
6973;SDS011;3527;52.376;8.990;2022-08-19T13:30:53;3.03;;;2.10;;
6973;SDS011;3527;52.376;8.990;2022-08-19T13:33:58;2.22;;;1.95;;
6973;SDS011;3527;52.376;8.990;2022-08-19T13:36:45;2.58;;;2.00;;
6973;SDS011;3527;52.376;8.990;2022-08-19T13:39:33;3.05;;;2.13;;
6973;SDS011;3527;52.376;8.990;2022-08-19T13:42:21;3.58;;;2.38;;
6973;SDS011;3527;52.376;8.990;2022-08-19T13:45:08;4.05;;;2.30;;
6973;SDS011;3527;52.376;8.990;2022-08-19T13:47:56;2.28;;;1.85;;
6973;SDS011;3527;52.376;8.990;2022-08-19T13:50:45;2.58;;;1.83;;
6973;SDS011;3527;52.376;8.990;2022-08-19T13:53:34;2.50;;;1.85;;
6973;SDS011;3527;52.376;8.990;2022-08-19T13:56:24;3.05;;;2.00;;
6973;SDS011;3527;52.376;8.990;2022-08-19T13:59:12;3.13;;;2.10;;
6973;SDS011;3527;52.376;8.990;2022-08-19T14:01:59;2.25;;;1.92;;
6973;SDS011;3527;52.376;8.990;2022-08-19T14:04:48;2.03;;;1.80;;
6973;SDS011;3527;52.376;8.990;2022-08-19T14:07:35;2.65;;;2.10;;
6973;SDS011;3527;52.376;8.990;2022-08-19T14:10:23;2.38;;;2.00;;
6973;SDS011;3527;52.376;8.990;2022-08-19T14:13:13;1.90;;;1.67;;
6973;SDS011;3527;52.376;8.990;2022-08-19T14:16:06;2.53;;;2.08;;
6973;SDS011;3527;52.376;8.990;2022-08-19T14:18:55;2.35;;;1.85;;
6973;SDS011;3527;52.376;8.990;2022-08-19T14:21:42;2.33;;;1.60;;
6973;SDS011;3527;52.376;8.990;2022-08-19T14:24:29;2.00;;;1.70;;
6973;SDS011;3527;52.376;8.990;2022-08-19T14:27:16;3.97;;;1.80;;
6973;SDS011;3527;52.376;8.990;2022-08-19T14:30:06;2.97;;;1.73;;
6973;SDS011;3527;52.376;8.990;2022-08-19T14:32:56;2.33;;;1.77;;
6973;SDS011;3527;52.376;8.990;2022-08-19T14:35:45;2.10;;;1.90;;
6973;SDS011;3527;52.376;8.990;2022-08-19T14:38:32;2.17;;;1.70;;
6973;SDS011;3527;52.376;8.990;2022-08-19T14:41:21;1.85;;;1.45;;
6973;SDS011;3527;52.376;8.990;2022-08-19T14:44:10;2.50;;;1.60;;
6973;SDS011;3527;52.376;8.990;2022-08-19T14:47:02;2.00;;;1.60;;
6973;SDS011;3527;52.376;8.990;2022-08-19T14:49:55;2.40;;;1.67;;
6973;SDS011;3527;52.376;8.990;2022-08-19T14:52:42;2.25;;;1.75;;
6973;SDS011;3527;52.376;8.990;2022-08-19T14:55:30;2.35;;;1.90;;
6973;SDS011;3527;52.376;8.990;2022-08-19T14:58:18;2.47;;;1.90;;
6973;SDS011;3527;52.376;8.990;2022-08-19T15:01:15;2.05;;;1.85;;
6973;SDS011;3527;52.376;8.990;2022-08-19T15:04:04;3.42;;;1.90;;
6973;SDS011;3527;52.376;8.990;2022-08-19T15:06:52;2.03;;;1.83;;
6973;SDS011;3527;52.376;8.990;2022-08-19T15:09:40;4.00;;;1.75;;
6973;SDS011;3527;52.376;8.990;2022-08-19T15:12:28;2.28;;;1.88;;
6973;SDS011;3527;52.376;8.990;2022-08-19T15:15:15;2.60;;;2.00;;
6973;SDS011;3527;52.376;8.990;2022-08-19T15:18:03;3.28;;;1.70;;
6973;SDS011;3527;52.376;8.990;2022-08-19T15:20:51;2.50;;;1.83;;
6973;SDS011;3527;52.376;8.990;2022-08-19T15:23:38;4.55;;;1.80;;
6973;SDS011;3527;52.376;8.990;2022-08-19T15:26:30;1.63;;;1.52;;
6973;SDS011;3527;52.376;8.990;2022-08-19T15:29:19;2.33;;;1.90;;
6973;SDS011;3527;52.376;8.990;2022-08-19T15:32:08;2.55;;;1.88;;
6973;SDS011;3527;52.376;8.990;2022-08-19T15:34:55;2.58;;;1.63;;
6973;SDS011;3527;52.376;8.990;2022-08-19T15:37:42;2.00;;;1.42;;
6973;SDS011;3527;52.376;8.990;2022-08-19T15:40:30;2.95;;;1.83;;
6973;SDS011;3527;52.376;8.990;2022-08-19T15:43:18;2.30;;;2.10;;
6973;SDS011;3527;52.376;8.990;2022-08-19T15:46:07;2.42;;;1.73;;
6973;SDS011;3527;52.376;8.990;2022-08-19T15:48:54;2.05;;;1.85;;
6973;SDS011;3527;52.376;8.990;2022-08-19T15:51:46;1.95;;;1.70;;
6973;SDS011;3527;52.376;8.990;2022-08-19T15:54:35;2.00;;;1.77;;
6973;SDS011;3527;52.376;8.990;2022-08-19T15:57:22;2.78;;;1.85;;
6973;SDS011;3527;52.376;8.990;2022-08-19T16:00:12;2.38;;;1.80;;
6973;SDS011;3527;52.376;8.990;2022-08-19T16:03:17;2.92;;;1.70;;
6973;SDS011;3527;52.376;8.990;2022-08-19T16:06:27;1.90;;;1.80;;
6973;SDS011;3527;52.376;8.990;2022-08-19T16:09:15;2.38;;;1.90;;
6973;SDS011;3527;52.376;8.990;2022-08-19T16:12:10;2.53;;;1.85;;
6973;SDS011;3527;52.376;8.990;2022-08-19T16:14:57;3.30;;;1.90;;
6973;SDS011;3527;52.376;8.990;2022-08-19T16:17:45;2.42;;;2.22;;
6973;SDS011;3527;52.376;8.990;2022-08-19T16:20:42;4.25;;;2.33;;
6973;SDS011;3527;52.376;8.990;2022-08-19T16:23:29;4.47;;;1.80;;
6973;SDS011;3527;52.376;8.990;2022-08-19T16:26:17;2.17;;;1.98;;
6973;SDS011;3527;52.376;8.990;2022-08-19T16:29:06;2.35;;;1.95;;
6973;SDS011;3527;52.376;8.990;2022-08-19T16:31:58;2.88;;;2.05;;
6973;SDS011;3527;52.376;8.990;2022-08-19T16:34:48;4.47;;;2.38;;
6973;SDS011;3527;52.376;8.990;2022-08-19T16:37:36;2.65;;;2.15;;
6973;SDS011;3527;52.376;8.990;2022-08-19T16:40:23;3.67;;;2.00;;
6973;SDS011;3527;52.376;8.990;2022-08-19T16:43:10;2.83;;;2.08;;
6973;SDS011;3527;52.376;8.990;2022-08-19T16:45:57;4.00;;;2.45;;
6973;SDS011;3527;52.376;8.990;2022-08-19T16:48:45;3.75;;;2.10;;
6973;SDS011;3527;52.376;8.990;2022-08-19T16:51:32;3.17;;;2.33;;
6973;SDS011;3527;52.376;8.990;2022-08-19T16:54:19;2.50;;;2.10;;
6973;SDS011;3527;52.376;8.990;2022-08-19T16:57:06;4.57;;;2.30;;
6973;SDS011;3527;52.376;8.990;2022-08-19T16:59:57;2.45;;;2.10;;
6973;SDS011;3527;52.376;8.990;2022-08-19T17:02:45;3.38;;;2.40;;
6973;SDS011;3527;52.376;8.990;2022-08-19T17:05:32;3.08;;;2.67;;
6973;SDS011;3527;52.376;8.990;2022-08-19T17:08:19;2.97;;;2.53;;
6973;SDS011;3527;52.376;8.990;2022-08-19T17:11:07;2.33;;;2.10;;
6973;SDS011;3527;52.376;8.990;2022-08-19T17:14:04;2.70;;;2.25;;
6973;SDS011;3527;52.376;8.990;2022-08-19T17:16:51;3.53;;;2.60;;
6973;SDS011;3527;52.376;8.990;2022-08-19T17:19:39;2.30;;;2.05;;
6973;SDS011;3527;52.376;8.990;2022-08-19T17:22:27;5.95;;;2.22;;
6973;SDS011;3527;52.376;8.990;2022-08-19T17:25:15;7.05;;;2.78;;
6973;SDS011;3527;52.376;8.990;2022-08-19T17:28:08;2.25;;;2.05;;
6973;SDS011;3527;52.376;8.990;2022-08-19T17:30:57;4.13;;;2.55;;
6973;SDS011;3527;52.376;8.990;2022-08-19T17:33:44;2.63;;;2.00;;
6973;SDS011;3527;52.376;8.990;2022-08-19T17:36:34;3.00;;;2.28;;